Terminal Aerodrome Forecast
Issued by NWS

Home | Current Version | Previous Version | Text Only | Print | Product List | Glossary On
Versions: 1 2 3 4 5 6 7 8 9 10 11 12 13
000
FTAK31 PAJN 150521
TAFAWG
TAF
PAWG 150521Z 1506/1606 14008KT P6SM -RA BKN035 OVC050
     FM150900 14005KT 6SM -SHRA BR SCT015 OVC035
     FM151900 13007KT P6SM -SHRA SCT015 OVC025
     FM160100 12006KT P6SM OVC050
     FM160500 11004KT P6SM OVC050
      AMD LTD TO CLD VIS AND WIND 1506/1515=

USA.gov is the U.S. government's official web portal to all federal, state and local government web resources and services.